Impacts METAR Board
IDs:

KPWG - Mc Gregor Executive, TX, US

Updated at: 2300 UTC 29 May 2020
Potential Impact None Slight Moderate High
Time 29/11Z 29/12Z 29/13Z 29/14Z 29/15Z 29/16Z 29/17Z 29/18Z 29/19Z 29/20Z 29/21Z 29/22Z 29/23Z
Temp66 66 68 73 75 78 82 84 86 86 87 86 87
Dewpt64 64 65 65 65 64 65 60 59 58 59 58 57
Altim30.09 30.12 30.13 30.15 30.15 30.14 30.13 30.13 30.14 30.13 30.13 30.12 30.10
VIS10 10 10 10 10 10 10 10 10 10 10 10 10
CIG-- -- -- -- -- -- -- -- -- -- -- -- --
CoverFEWSCTCLRCLRCLRCLRCLRCLRCLRCLRCLRCLRCLR
FltCatVFRVFRVFRVFRVFRVFRVFRVFRVFRVFRVFRVFRVFR
WX--------------------------
WDir033035020502030402060302030
WSpd0 4 7 8 12 13 9 11 10 10 11 5 12
WGst-- -- -- -- -- 17 -- 17 16 17 17 -- 16
Raw hourly METARs
KPWG 291056Z AUTO 00000KT 10SM FEW039 19/18 A3009 RMK AO2 SLP184 T01890178 $
KPWG 291156Z AUTO 33004KT 10SM SCT039 19/18 A3012 RMK AO2 SLP192 70001 T01890178 10206 20183 53019 $
KPWG 291256Z AUTO 35007KT 10SM CLR 20/18 A3013 RMK AO2 SLP197 T02000183 $
KPWG 291356Z AUTO 02008KT 10SM CLR 23/18 A3015 RMK AO2 SLP204 T02280183 $
KPWG 291456Z AUTO 05012KT 10SM CLR 24/18 A3015 RMK AO2 SLP203 T02390183 50011 $
KPWG 291556Z AUTO 02013G17KT 10SM CLR 26/18 A3014 RMK AO2 SLP199 T02560178 $
KPWG 291656Z AUTO 03009KT 10SM CLR 28/18 A3013 RMK AO2 SLP197 T02780183 $
KPWG 291756Z AUTO 04011G17KT 10SM CLR 29/16 A3013 RMK AO2 SLP197 T02890156 10289 20189 56005 $
KPWG 291856Z AUTO 02010G16KT 10SM CLR 30/15 A3014 RMK AO2 SLP201 T03000150 $
KPWG 291956Z AUTO 06010G17KT 10SM CLR 30/14 A3013 RMK AO2 SLP198 T03000144 $
KPWG 292056Z AUTO 03011G17KT 10SM CLR 31/15 A3013 RMK AO2 SLP196 T03060150 58001 $
KPWG 292156Z AUTO 02005KT 10SM CLR 30/14 A3012 RMK AO2 SLP191 T03000144 $
KPWG 292256Z AUTO 03012G16KT 10SM CLR 31/14 A3010 RMK AO2 SLP186 T03060139 $